sensor_id;sensor_type;location;lat;lon;timestamp;P1;durP1;ratioP1;P2;durP2;ratioP2
9906;SDS011;4992;51.628;6.664;2023-04-21T00:01:13;21.73;;;17.63;;
9906;SDS011;4992;51.628;6.664;2023-04-21T00:03:40;21.03;;;17.30;;
9906;SDS011;4992;51.628;6.664;2023-04-21T00:06:06;23.67;;;19.03;;
9906;SDS011;4992;51.628;6.664;2023-04-21T00:08:36;20.23;;;18.03;;
9906;SDS011;4992;51.628;6.664;2023-04-21T00:11:05;24.37;;;19.33;;
9906;SDS011;4992;51.628;6.664;2023-04-21T00:13:32;23.00;;;19.03;;
9906;SDS011;4992;51.628;6.664;2023-04-21T00:15:58;23.67;;;19.23;;
9906;SDS011;4992;51.628;6.664;2023-04-21T00:18:24;23.00;;;20.00;;
9906;SDS011;4992;51.628;6.664;2023-04-21T00:20:51;24.60;;;19.90;;
9906;SDS011;4992;51.628;6.664;2023-04-21T00:23:17;24.40;;;20.30;;
9906;SDS011;4992;51.628;6.664;2023-04-21T00:25:43;27.67;;;21.27;;
9906;SDS011;4992;51.628;6.664;2023-04-21T00:28:09;26.60;;;21.30;;
9906;SDS011;4992;51.628;6.664;2023-04-21T00:30:35;27.67;;;20.53;;
9906;SDS011;4992;51.628;6.664;2023-04-21T00:33:01;30.90;;;21.83;;
9906;SDS011;4992;51.628;6.664;2023-04-21T00:35:27;29.53;;;21.63;;
9906;SDS011;4992;51.628;6.664;2023-04-21T00:37:53;29.53;;;21.37;;
9906;SDS011;4992;51.628;6.664;2023-04-21T00:40:19;26.17;;;21.07;;
9906;SDS011;4992;51.628;6.664;2023-04-21T00:42:45;28.57;;;21.87;;
9906;SDS011;4992;51.628;6.664;2023-04-21T00:45:11;27.47;;;21.23;;
9906;SDS011;4992;51.628;6.664;2023-04-21T00:47:39;30.60;;;22.70;;
9906;SDS011;4992;51.628;6.664;2023-04-21T00:50:05;31.73;;;22.37;;
9906;SDS011;4992;51.628;6.664;2023-04-21T00:52:31;28.93;;;22.80;;
9906;SDS011;4992;51.628;6.664;2023-04-21T00:54:58;30.17;;;23.77;;
9906;SDS011;4992;51.628;6.664;2023-04-21T00:57:24;31.93;;;23.87;;
9906;SDS011;4992;51.628;6.664;2023-04-21T00:59:50;31.87;;;22.93;;
9906;SDS011;4992;51.628;6.664;2023-04-21T01:02:16;28.27;;;22.67;;
9906;SDS011;4992;51.628;6.664;2023-04-21T01:04:43;30.57;;;23.23;;
9906;SDS011;4992;51.628;6.664;2023-04-21T01:07:09;30.53;;;23.50;;
9906;SDS011;4992;51.628;6.664;2023-04-21T01:09:35;31.33;;;24.57;;
9906;SDS011;4992;51.628;6.664;2023-04-21T01:14:28;31.80;;;24.13;;
9906;SDS011;4992;51.628;6.664;2023-04-21T01:16:54;29.53;;;24.43;;
9906;SDS011;4992;51.628;6.664;2023-04-21T01:19:20;34.70;;;25.30;;
9906;SDS011;4992;51.628;6.664;2023-04-21T01:21:46;32.50;;;26.10;;
9906;SDS011;4992;51.628;6.664;2023-04-21T01:24:13;38.40;;;26.93;;
9906;SDS011;4992;51.628;6.664;2023-04-21T01:26:39;35.03;;;25.03;;
9906;SDS011;4992;51.628;6.664;2023-04-21T01:29:06;31.93;;;25.10;;
9906;SDS011;4992;51.628;6.664;2023-04-21T01:31:32;36.20;;;26.20;;
9906;SDS011;4992;51.628;6.664;2023-04-21T01:34:01;33.90;;;26.33;;
9906;SDS011;4992;51.628;6.664;2023-04-21T01:36:27;36.53;;;25.93;;
9906;SDS011;4992;51.628;6.664;2023-04-21T01:38:53;36.20;;;26.57;;
9906;SDS011;4992;51.628;6.664;2023-04-21T01:41:19;34.57;;;26.20;;
9906;SDS011;4992;51.628;6.664;2023-04-21T01:43:45;39.90;;;27.20;;
9906;SDS011;4992;51.628;6.664;2023-04-21T01:46:11;37.97;;;26.80;;
9906;SDS011;4992;51.628;6.664;2023-04-21T01:48:37;36.23;;;27.30;;
9906;SDS011;4992;51.628;6.664;2023-04-21T01:51:03;37.97;;;27.60;;
9906;SDS011;4992;51.628;6.664;2023-04-21T01:53:29;41.23;;;29.53;;
9906;SDS011;4992;51.628;6.664;2023-04-21T01:55:55;38.50;;;28.43;;
9906;SDS011;4992;51.628;6.664;2023-04-21T01:58:21;38.93;;;27.70;;
9906;SDS011;4992;51.628;6.664;2023-04-21T02:00:47;37.90;;;28.00;;
9906;SDS011;4992;51.628;6.664;2023-04-21T02:03:13;38.73;;;28.50;;
9906;SDS011;4992;51.628;6.664;2023-04-21T02:05:39;40.50;;;28.73;;
9906;SDS011;4992;51.628;6.664;2023-04-21T02:08:05;38.17;;;28.53;;
9906;SDS011;4992;51.628;6.664;2023-04-21T02:10:31;43.67;;;30.07;;
9906;SDS011;4992;51.628;6.664;2023-04-21T02:12:57;45.20;;;30.70;;
9906;SDS011;4992;51.628;6.664;2023-04-21T02:15:23;40.80;;;29.40;;
9906;SDS011;4992;51.628;6.664;2023-04-21T02:17:49;41.63;;;30.00;;
9906;SDS011;4992;51.628;6.664;2023-04-21T02:20:15;44.27;;;31.80;;
9906;SDS011;4992;51.628;6.664;2023-04-21T02:22:41;44.83;;;30.83;;
9906;SDS011;4992;51.628;6.664;2023-04-21T02:25:07;44.43;;;31.00;;
9906;SDS011;4992;51.628;6.664;2023-04-21T02:27:33;45.23;;;31.47;;
9906;SDS011;4992;51.628;6.664;2023-04-21T02:29:59;44.90;;;32.27;;
9906;SDS011;4992;51.628;6.664;2023-04-21T02:32:25;47.77;;;32.50;;
9906;SDS011;4992;51.628;6.664;2023-04-21T02:34:51;45.97;;;32.13;;
9906;SDS011;4992;51.628;6.664;2023-04-21T02:37:17;50.20;;;33.00;;
9906;SDS011;4992;51.628;6.664;2023-04-21T02:39:43;47.90;;;33.80;;
9906;SDS011;4992;51.628;6.664;2023-04-21T02:42:09;49.03;;;34.20;;
9906;SDS011;4992;51.628;6.664;2023-04-21T02:44:36;52.57;;;34.57;;
9906;SDS011;4992;51.628;6.664;2023-04-21T02:47:02;50.10;;;34.20;;
9906;SDS011;4992;51.628;6.664;2023-04-21T02:49:28;54.43;;;35.13;;
9906;SDS011;4992;51.628;6.664;2023-04-21T02:51:54;49.00;;;33.07;;
9906;SDS011;4992;51.628;6.664;2023-04-21T02:54:20;49.27;;;34.80;;
9906;SDS011;4992;51.628;6.664;2023-04-21T02:56:46;50.73;;;34.73;;
9906;SDS011;4992;51.628;6.664;2023-04-21T02:59:12;51.97;;;35.23;;
9906;SDS011;4992;51.628;6.664;2023-04-21T03:01:40;49.40;;;34.53;;
9906;SDS011;4992;51.628;6.664;2023-04-21T03:04:06;47.57;;;35.27;;
9906;SDS011;4992;51.628;6.664;2023-04-21T03:06:32;49.07;;;35.10;;
9906;SDS011;4992;51.628;6.664;2023-04-21T03:08:58;53.93;;;36.57;;
9906;SDS011;4992;51.628;6.664;2023-04-21T03:11:24;51.13;;;34.77;;
9906;SDS011;4992;51.628;6.664;2023-04-21T03:13:50;51.93;;;35.67;;
9906;SDS011;4992;51.628;6.664;2023-04-21T03:16:16;53.77;;;36.77;;
9906;SDS011;4992;51.628;6.664;2023-04-21T03:18:43;49.37;;;35.27;;
9906;SDS011;4992;51.628;6.664;2023-04-21T03:21:09;53.77;;;34.87;;
9906;SDS011;4992;51.628;6.664;2023-04-21T03:23:35;51.27;;;35.70;;
9906;SDS011;4992;51.628;6.664;2023-04-21T03:26:05;54.03;;;36.30;;
9906;SDS011;4992;51.628;6.664;2023-04-21T03:28:31;49.87;;;35.70;;
9906;SDS011;4992;51.628;6.664;2023-04-21T03:30:57;51.23;;;36.77;;
9906;SDS011;4992;51.628;6.664;2023-04-21T03:33:23;52.53;;;36.53;;
9906;SDS011;4992;51.628;6.664;2023-04-21T03:35:49;55.83;;;35.93;;
9906;SDS011;4992;51.628;6.664;2023-04-21T03:38:15;49.77;;;36.07;;
9906;SDS011;4992;51.628;6.664;2023-04-21T03:40:41;53.93;;;37.47;;
9906;SDS011;4992;51.628;6.664;2023-04-21T03:43:07;53.60;;;35.40;;
9906;SDS011;4992;51.628;6.664;2023-04-21T03:45:35;47.73;;;35.00;;
9906;SDS011;4992;51.628;6.664;2023-04-21T03:48:01;52.67;;;35.43;;
9906;SDS011;4992;51.628;6.664;2023-04-21T03:50:28;53.00;;;36.37;;
9906;SDS011;4992;51.628;6.664;2023-04-21T03:52:54;54.50;;;37.43;;
9906;SDS011;4992;51.628;6.664;2023-04-21T03:55:20;57.50;;;36.10;;
9906;SDS011;4992;51.628;6.664;2023-04-21T03:57:46;53.37;;;37.17;;
9906;SDS011;4992;51.628;6.664;2023-04-21T04:00:12;51.97;;;37.33;;
9906;SDS011;4992;51.628;6.664;2023-04-21T04:02:38;52.60;;;36.80;;
9906;SDS011;4992;51.628;6.664;2023-04-21T04:05:04;52.13;;;37.27;;
9906;SDS011;4992;51.628;6.664;2023-04-21T04:07:31;51.57;;;36.07;;
9906;SDS011;4992;51.628;6.664;2023-04-21T04:09:57;52.63;;;37.53;;
9906;SDS011;4992;51.628;6.664;2023-04-21T04:12:23;52.27;;;37.03;;
9906;SDS011;4992;51.628;6.664;2023-04-21T04:14:49;56.13;;;37.73;;
9906;SDS011;4992;51.628;6.664;2023-04-21T04:17:15;49.97;;;36.27;;
9906;SDS011;4992;51.628;6.664;2023-04-21T04:19:41;52.47;;;36.47;;
9906;SDS011;4992;51.628;6.664;2023-04-21T04:22:07;51.77;;;35.43;;
9906;SDS011;4992;51.628;6.664;2023-04-21T04:24:33;53.37;;;36.17;;
9906;SDS011;4992;51.628;6.664;2023-04-21T04:26:59;49.87;;;36.53;;
9906;SDS011;4992;51.628;6.664;2023-04-21T04:29:27;50.07;;;36.67;;
9906;SDS011;4992;51.628;6.664;2023-04-21T04:31:53;49.83;;;36.50;;
9906;SDS011;4992;51.628;6.664;2023-04-21T04:34:19;50.03;;;37.20;;
9906;SDS011;4992;51.628;6.664;2023-04-21T04:36:47;49.73;;;34.90;;
9906;SDS011;4992;51.628;6.664;2023-04-21T04:39:14;53.33;;;36.73;;
9906;SDS011;4992;51.628;6.664;2023-04-21T04:41:41;51.07;;;36.60;;
9906;SDS011;4992;51.628;6.664;2023-04-21T04:44:07;50.67;;;35.93;;
9906;SDS011;4992;51.628;6.664;2023-04-21T04:46:33;51.30;;;36.43;;
9906;SDS011;4992;51.628;6.664;2023-04-21T04:49:00;50.47;;;36.70;;
9906;SDS011;4992;51.628;6.664;2023-04-21T04:51:26;52.33;;;36.50;;
9906;SDS011;4992;51.628;6.664;2023-04-21T04:53:52;51.20;;;36.70;;
9906;SDS011;4992;51.628;6.664;2023-04-21T04:56:18;53.63;;;36.90;;
9906;SDS011;4992;51.628;6.664;2023-04-21T04:58:44;52.37;;;38.30;;
9906;SDS011;4992;51.628;6.664;2023-04-21T05:01:15;54.63;;;37.07;;
9906;SDS011;4992;51.628;6.664;2023-04-21T05:03:42;53.80;;;37.83;;
9906;SDS011;4992;51.628;6.664;2023-04-21T05:06:08;53.03;;;38.97;;
9906;SDS011;4992;51.628;6.664;2023-04-21T05:08:34;51.63;;;37.40;;
9906;SDS011;4992;51.628;6.664;2023-04-21T05:11:00;50.83;;;36.50;;
9906;SDS011;4992;51.628;6.664;2023-04-21T05:13:26;56.03;;;38.47;;
9906;SDS011;4992;51.628;6.664;2023-04-21T05:15:58;54.43;;;38.27;;
9906;SDS011;4992;51.628;6.664;2023-04-21T05:18:26;55.30;;;41.47;;
9906;SDS011;4992;51.628;6.664;2023-04-21T05:20:52;55.43;;;38.93;;
9906;SDS011;4992;51.628;6.664;2023-04-21T05:23:18;56.90;;;37.37;;
9906;SDS011;4992;51.628;6.664;2023-04-21T05:25:44;52.13;;;38.03;;
9906;SDS011;4992;51.628;6.664;2023-04-21T05:28:10;50.93;;;37.17;;
9906;SDS011;4992;51.628;6.664;2023-04-21T05:30:36;52.93;;;37.07;;
9906;SDS011;4992;51.628;6.664;2023-04-21T05:33:02;51.70;;;36.37;;
9906;SDS011;4992;51.628;6.664;2023-04-21T05:35:32;52.47;;;36.20;;
9906;SDS011;4992;51.628;6.664;2023-04-21T05:37:58;52.37;;;37.00;;
9906;SDS011;4992;51.628;6.664;2023-04-21T05:40:24;52.87;;;37.27;;
9906;SDS011;4992;51.628;6.664;2023-04-21T05:42:50;54.63;;;37.97;;
9906;SDS011;4992;51.628;6.664;2023-04-21T05:45:16;52.80;;;37.27;;
9906;SDS011;4992;51.628;6.664;2023-04-21T05:47:42;51.97;;;37.90;;
9906;SDS011;4992;51.628;6.664;2023-04-21T05:50:08;55.73;;;39.03;;
9906;SDS011;4992;51.628;6.664;2023-04-21T05:52:34;48.30;;;37.03;;
9906;SDS011;4992;51.628;6.664;2023-04-21T05:55:01;48.03;;;36.90;;
9906;SDS011;4992;51.628;6.664;2023-04-21T05:57:27;51.80;;;38.23;;
9906;SDS011;4992;51.628;6.664;2023-04-21T05:59:53;50.90;;;38.10;;
9906;SDS011;4992;51.628;6.664;2023-04-21T06:02:19;49.83;;;36.30;;
9906;SDS011;4992;51.628;6.664;2023-04-21T06:04:45;49.57;;;39.13;;
9906;SDS011;4992;51.628;6.664;2023-04-21T06:07:11;49.17;;;38.00;;
9906;SDS011;4992;51.628;6.664;2023-04-21T06:09:38;52.07;;;39.60;;
9906;SDS011;4992;51.628;6.664;2023-04-21T06:12:04;47.83;;;36.77;;
9906;SDS011;4992;51.628;6.664;2023-04-21T06:14:30;47.90;;;37.57;;
9906;SDS011;4992;51.628;6.664;2023-04-21T06:16:56;44.00;;;36.10;;
9906;SDS011;4992;51.628;6.664;2023-04-21T06:19:22;44.87;;;35.97;;
9906;SDS011;4992;51.628;6.664;2023-04-21T06:21:48;40.93;;;32.87;;
9906;SDS011;4992;51.628;6.664;2023-04-21T06:24:14;43.83;;;35.00;;
9906;SDS011;4992;51.628;6.664;2023-04-21T06:26:40;43.83;;;35.23;;
9906;SDS011;4992;51.628;6.664;2023-04-21T06:29:06;41.30;;;33.97;;
9906;SDS011;4992;51.628;6.664;2023-04-21T06:31:32;44.23;;;35.40;;
9906;SDS011;4992;51.628;6.664;2023-04-21T06:33:58;45.77;;;35.17;;
9906;SDS011;4992;51.628;6.664;2023-04-21T06:36:24;43.10;;;34.93;;
9906;SDS011;4992;51.628;6.664;2023-04-21T06:38:51;44.73;;;36.23;;
9906;SDS011;4992;51.628;6.664;2023-04-21T06:41:17;42.97;;;35.13;;
9906;SDS011;4992;51.628;6.664;2023-04-21T06:43:43;47.77;;;35.73;;
9906;SDS011;4992;51.628;6.664;2023-04-21T06:46:09;49.13;;;36.50;;
9906;SDS011;4992;51.628;6.664;2023-04-21T06:48:36;46.97;;;36.23;;
9906;SDS011;4992;51.628;6.664;2023-04-21T06:51:02;44.70;;;36.40;;
9906;SDS011;4992;51.628;6.664;2023-04-21T06:53:28;43.57;;;34.53;;
9906;SDS011;4992;51.628;6.664;2023-04-21T06:55:54;44.50;;;36.57;;
9906;SDS011;4992;51.628;6.664;2023-04-21T06:58:20;44.03;;;35.17;;
9906;SDS011;4992;51.628;6.664;2023-04-21T07:00:46;44.87;;;35.70;;
9906;SDS011;4992;51.628;6.664;2023-04-21T07:03:12;40.60;;;34.00;;
9906;SDS011;4992;51.628;6.664;2023-04-21T07:05:38;44.90;;;34.37;;
9906;SDS011;4992;51.628;6.664;2023-04-21T07:08:04;40.37;;;32.60;;
9906;SDS011;4992;51.628;6.664;2023-04-21T07:10:30;39.43;;;33.73;;
9906;SDS011;4992;51.628;6.664;2023-04-21T07:12:56;38.53;;;31.17;;
9906;SDS011;4992;51.628;6.664;2023-04-21T07:15:22;38.07;;;31.57;;
9906;SDS011;4992;51.628;6.664;2023-04-21T07:17:48;38.70;;;32.40;;
9906;SDS011;4992;51.628;6.664;2023-04-21T07:20:14;41.73;;;33.67;;
9906;SDS011;4992;51.628;6.664;2023-04-21T07:22:42;43.23;;;32.57;;
9906;SDS011;4992;51.628;6.664;2023-04-21T07:25:09;39.53;;;32.40;;
9906;SDS011;4992;51.628;6.664;2023-04-21T07:27:36;36.57;;;32.50;;
9906;SDS011;4992;51.628;6.664;2023-04-21T07:30:05;36.63;;;31.20;;
9906;SDS011;4992;51.628;6.664;2023-04-21T07:32:31;37.67;;;32.13;;
9906;SDS011;4992;51.628;6.664;2023-04-21T07:34:57;36.63;;;31.27;;
9906;SDS011;4992;51.628;6.664;2023-04-21T07:37:25;36.30;;;30.63;;
9906;SDS011;4992;51.628;6.664;2023-04-21T07:39:51;34.30;;;30.40;;
9906;SDS011;4992;51.628;6.664;2023-04-21T07:42:17;35.53;;;29.53;;
9906;SDS011;4992;51.628;6.664;2023-04-21T07:44:43;32.57;;;28.47;;
9906;SDS011;4992;51.628;6.664;2023-04-21T07:47:09;39.60;;;30.57;;
9906;SDS011;4992;51.628;6.664;2023-04-21T07:49:35;34.77;;;30.67;;
9906;SDS011;4992;51.628;6.664;2023-04-21T07:52:01;33.37;;;29.73;;
9906;SDS011;4992;51.628;6.664;2023-04-21T07:54:27;34.83;;;29.50;;
9906;SDS011;4992;51.628;6.664;2023-04-21T07:56:53;31.47;;;28.03;;
9906;SDS011;4992;51.628;6.664;2023-04-21T07:59:20;33.50;;;27.73;;
9906;SDS011;4992;51.628;6.664;2023-04-21T08:01:45;33.07;;;28.20;;
9906;SDS011;4992;51.628;6.664;2023-04-21T08:04:12;32.77;;;28.57;;
9906;SDS011;4992;51.628;6.664;2023-04-21T08:06:37;31.90;;;27.97;;
9906;SDS011;4992;51.628;6.664;2023-04-21T08:09:03;33.87;;;28.70;;
9906;SDS011;4992;51.628;6.664;2023-04-21T08:11:29;31.13;;;26.83;;
9906;SDS011;4992;51.628;6.664;2023-04-21T08:13:55;34.67;;;29.33;;
9906;SDS011;4992;51.628;6.664;2023-04-21T08:16:22;32.08;;;28.30;;
9906;SDS011;4992;51.628;6.664;2023-04-21T08:18:48;31.67;;;28.27;;
9906;SDS011;4992;51.628;6.664;2023-04-21T08:21:14;30.17;;;26.77;;
9906;SDS011;4992;51.628;6.664;2023-04-21T08:23:40;30.00;;;26.13;;
9906;SDS011;4992;51.628;6.664;2023-04-21T08:26:06;34.42;;;26.92;;
9906;SDS011;4992;51.628;6.664;2023-04-21T08:28:32;30.90;;;26.65;;
9906;SDS011;4992;51.628;6.664;2023-04-21T08:30:58;28.10;;;25.05;;
9906;SDS011;4992;51.628;6.664;2023-04-21T08:33:24;27.27;;;24.35;;
9906;SDS011;4992;51.628;6.664;2023-04-21T08:35:50;28.65;;;25.63;;
9906;SDS011;4992;51.628;6.664;2023-04-21T08:38:16;26.70;;;23.73;;
9906;SDS011;4992;51.628;6.664;2023-04-21T08:40:42;28.83;;;24.55;;
9906;SDS011;4992;51.628;6.664;2023-04-21T08:43:08;28.27;;;24.75;;
9906;SDS011;4992;51.628;6.664;2023-04-21T08:45:34;27.45;;;24.52;;
9906;SDS011;4992;51.628;6.664;2023-04-21T08:48:01;27.77;;;24.77;;
9906;SDS011;4992;51.628;6.664;2023-04-21T08:50:29;26.50;;;23.92;;
9906;SDS011;4992;51.628;6.664;2023-04-21T08:52:56;26.20;;;23.50;;
9906;SDS011;4992;51.628;6.664;2023-04-21T08:55:27;25.73;;;23.13;;
9906;SDS011;4992;51.628;6.664;2023-04-21T08:57:53;28.05;;;24.25;;
9906;SDS011;4992;51.628;6.664;2023-04-21T09:00:19;28.20;;;23.92;;
9906;SDS011;4992;51.628;6.664;2023-04-21T09:02:55;27.15;;;24.02;;
9906;SDS011;4992;51.628;6.664;2023-04-21T09:05:22;28.35;;;24.45;;
9906;SDS011;4992;51.628;6.664;2023-04-21T09:07:48;28.35;;;25.48;;
9906;SDS011;4992;51.628;6.664;2023-04-21T09:10:14;27.60;;;24.80;;
9906;SDS011;4992;51.628;6.664;2023-04-21T09:12:49;27.88;;;24.95;;
9906;SDS011;4992;51.628;6.664;2023-04-21T09:15:15;30.33;;;24.83;;
9906;SDS011;4992;51.628;6.664;2023-04-21T09:17:43;25.20;;;22.50;;
9906;SDS011;4992;51.628;6.664;2023-04-21T09:20:19;27.25;;;24.63;;
9906;SDS011;4992;51.628;6.664;2023-04-21T09:22:48;25.90;;;23.33;;
9906;SDS011;4992;51.628;6.664;2023-04-21T09:25:21;24.98;;;22.33;;
9906;SDS011;4992;51.628;6.664;2023-04-21T09:27:47;26.42;;;23.67;;
9906;SDS011;4992;51.628;6.664;2023-04-21T09:30:13;25.67;;;22.98;;
9906;SDS011;4992;51.628;6.664;2023-04-21T09:32:42;23.17;;;20.77;;
9906;SDS011;4992;51.628;6.664;2023-04-21T09:35:09;25.20;;;22.50;;
9906;SDS011;4992;51.628;6.664;2023-04-21T09:37:35;24.40;;;22.00;;
9906;SDS011;4992;51.628;6.664;2023-04-21T09:40:01;25.15;;;22.45;;
9906;SDS011;4992;51.628;6.664;2023-04-21T09:42:31;25.25;;;22.65;;
9906;SDS011;4992;51.628;6.664;2023-04-21T09:44:57;24.58;;;22.05;;
9906;SDS011;4992;51.628;6.664;2023-04-21T09:47:24;25.52;;;20.98;;
9906;SDS011;4992;51.628;6.664;2023-04-21T09:49:53;23.98;;;21.48;;
9906;SDS011;4992;51.628;6.664;2023-04-21T09:52:19;26.17;;;23.42;;
9906;SDS011;4992;51.628;6.664;2023-04-21T09:54:49;24.52;;;21.90;;
9906;SDS011;4992;51.628;6.664;2023-04-21T09:57:20;23.90;;;21.40;;
9906;SDS011;4992;51.628;6.664;2023-04-21T09:59:47;23.25;;;20.95;;
9906;SDS011;4992;51.628;6.664;2023-04-21T10:02:15;22.25;;;20.08;;
9906;SDS011;4992;51.628;6.664;2023-04-21T10:04:44;22.00;;;19.80;;
9906;SDS011;4992;51.628;6.664;2023-04-21T10:07:10;21.83;;;19.60;;
9906;SDS011;4992;51.628;6.664;2023-04-21T10:12:14;24.35;;;21.75;;
9906;SDS011;4992;51.628;6.664;2023-04-21T10:14:41;23.33;;;20.83;;
9906;SDS011;4992;51.628;6.664;2023-04-21T10:17:07;23.83;;;20.30;;
9906;SDS011;4992;51.628;6.664;2023-04-21T10:19:37;20.95;;;18.85;;
9906;SDS011;4992;51.628;6.664;2023-04-21T10:22:12;21.75;;;19.45;;
9906;SDS011;4992;51.628;6.664;2023-04-21T10:24:38;20.92;;;18.77;;
9906;SDS011;4992;51.628;6.664;2023-04-21T10:27:04;22.42;;;20.17;;
9906;SDS011;4992;51.628;6.664;2023-04-21T10:29:32;23.25;;;20.95;;
9906;SDS011;4992;51.628;6.664;2023-04-21T10:31:58;25.33;;;21.13;;
9906;SDS011;4992;51.628;6.664;2023-04-21T10:39:26;24.63;;;21.38;;
9906;SDS011;4992;51.628;6.664;2023-04-21T10:41:56;24.45;;;21.83;;
9906;SDS011;4992;51.628;6.664;2023-04-21T10:44:22;24.38;;;21.55;;
9906;SDS011;4992;51.628;6.664;2023-04-21T10:46:49;24.55;;;21.65;;
9906;SDS011;4992;51.628;6.664;2023-04-21T10:54:31;24.55;;;21.98;;
9906;SDS011;4992;51.628;6.664;2023-04-21T10:57:03;23.15;;;20.75;;
9906;SDS011;4992;51.628;6.664;2023-04-21T10:59:30;22.38;;;20.13;;
9906;SDS011;4992;51.628;6.664;2023-04-21T11:01:56;24.58;;;21.40;;
9906;SDS011;4992;51.628;6.664;2023-04-21T11:04:22;24.80;;;22.50;;
9906;SDS011;4992;51.628;6.664;2023-04-21T11:07:07;21.90;;;19.60;;
9906;SDS011;4992;51.628;6.664;2023-04-21T11:09:33;22.02;;;19.83;;
9906;SDS011;4992;51.628;6.664;2023-04-21T11:12:00;21.83;;;19.48;;
9906;SDS011;4992;51.628;6.664;2023-04-21T11:14:28;21.63;;;19.33;;
9906;SDS011;4992;51.628;6.664;2023-04-21T11:16:54;22.88;;;19.88;;
9906;SDS011;4992;51.628;6.664;2023-04-21T11:19:20;22.42;;;20.23;;
9906;SDS011;4992;51.628;6.664;2023-04-21T11:21:48;22.25;;;19.85;;
9906;SDS011;4992;51.628;6.664;2023-04-21T11:24:14;23.73;;;20.27;;
9906;SDS011;4992;51.628;6.664;2023-04-21T11:26:40;22.40;;;19.60;;
9906;SDS011;4992;51.628;6.664;2023-04-21T11:29:07;22.35;;;19.92;;
9906;SDS011;4992;51.628;6.664;2023-04-21T11:31:33;22.58;;;20.17;;
9906;SDS011;4992;51.628;6.664;2023-04-21T11:34:00;22.35;;;20.05;;
9906;SDS011;4992;51.628;6.664;2023-04-21T11:36:30;20.65;;;18.55;;
9906;SDS011;4992;51.628;6.664;2023-04-21T11:38:56;22.40;;;19.23;;
9906;SDS011;4992;51.628;6.664;2023-04-21T11:41:23;22.77;;;19.65;;
9906;SDS011;4992;51.628;6.664;2023-04-21T11:43:50;20.65;;;18.52;;
9906;SDS011;4992;51.628;6.664;2023-04-21T11:46:17;21.73;;;19.33;;
9906;SDS011;4992;51.628;6.664;2023-04-21T11:48:43;21.85;;;19.55;;
9906;SDS011;4992;51.628;6.664;2023-04-21T11:51:18;24.60;;;19.52;;
9906;SDS011;4992;51.628;6.664;2023-04-21T11:53:47;23.23;;;18.67;;
9906;SDS011;4992;51.628;6.664;2023-04-21T11:56:16;21.38;;;19.27;;
9906;SDS011;4992;51.628;6.664;2023-04-21T11:58:43;22.23;;;19.85;;
9906;SDS011;4992;51.628;6.664;2023-04-21T12:01:10;21.48;;;19.27;;
9906;SDS011;4992;51.628;6.664;2023-04-21T12:03:36;22.67;;;19.65;;
9906;SDS011;4992;51.628;6.664;2023-04-21T12:06:02;21.60;;;19.50;;
9906;SDS011;4992;51.628;6.664;2023-04-21T12:08:28;20.83;;;18.70;;
9906;SDS011;4992;51.628;6.664;2023-04-21T12:10:54;21.80;;;19.08;;
9906;SDS011;4992;51.628;6.664;2023-04-21T12:13:21;20.90;;;18.70;;
9906;SDS011;4992;51.628;6.664;2023-04-21T12:15:47;20.23;;;18.25;;
9906;SDS011;4992;51.628;6.664;2023-04-21T12:18:13;18.50;;;16.70;;
9906;SDS011;4992;51.628;6.664;2023-04-21T12:20:47;19.90;;;16.98;;
9906;SDS011;4992;51.628;6.664;2023-04-21T12:23:14;17.40;;;15.70;;
9906;SDS011;4992;51.628;6.664;2023-04-21T12:25:40;19.42;;;16.73;;
9906;SDS011;4992;51.628;6.664;2023-04-21T12:28:06;18.65;;;16.85;;
9906;SDS011;4992;51.628;6.664;2023-04-21T12:30:33;19.02;;;17.10;;
9906;SDS011;4992;51.628;6.664;2023-04-21T12:32:59;18.90;;;16.88;;
9906;SDS011;4992;51.628;6.664;2023-04-21T12:35:25;17.33;;;15.63;;
9906;SDS011;4992;51.628;6.664;2023-04-21T12:37:51;16.63;;;15.02;;
9906;SDS011;4992;51.628;6.664;2023-04-21T12:40:17;16.73;;;15.02;;
9906;SDS011;4992;51.628;6.664;2023-04-21T12:42:43;18.02;;;15.30;;
9906;SDS011;4992;51.628;6.664;2023-04-21T12:45:09;16.17;;;14.57;;
9906;SDS011;4992;51.628;6.664;2023-04-21T12:47:35;15.82;;;14.02;;
9906;SDS011;4992;51.628;6.664;2023-04-21T12:50:01;16.08;;;14.48;;
9906;SDS011;4992;51.628;6.664;2023-04-21T12:52:27;16.20;;;14.45;;
9906;SDS011;4992;51.628;6.664;2023-04-21T12:54:53;15.77;;;13.25;;
9906;SDS011;4992;51.628;6.664;2023-04-21T12:57:19;15.68;;;13.90;;
9906;SDS011;4992;51.628;6.664;2023-04-21T12:59:45;13.38;;;12.07;;
9906;SDS011;4992;51.628;6.664;2023-04-21T13:02:11;13.60;;;11.80;;
9906;SDS011;4992;51.628;6.664;2023-04-21T13:04:37;16.20;;;13.85;;
9906;SDS011;4992;51.628;6.664;2023-04-21T13:07:06;15.55;;;14.15;;
9906;SDS011;4992;51.628;6.664;2023-04-21T13:09:32;14.85;;;13.18;;
9906;SDS011;4992;51.628;6.664;2023-04-21T13:11:58;16.25;;;14.55;;
9906;SDS011;4992;51.628;6.664;2023-04-21T13:14:25;14.50;;;13.00;;
9906;SDS011;4992;51.628;6.664;2023-04-21T13:16:52;15.00;;;13.48;;
9906;SDS011;4992;51.628;6.664;2023-04-21T13:19:18;14.85;;;13.45;;
9906;SDS011;4992;51.628;6.664;2023-04-21T13:21:44;15.77;;;13.50;;
9906;SDS011;4992;51.628;6.664;2023-04-21T13:24:10;14.45;;;13.05;;
9906;SDS011;4992;51.628;6.664;2023-04-21T13:26:36;15.02;;;13.05;;
9906;SDS011;4992;51.628;6.664;2023-04-21T13:29:02;16.23;;;14.60;;
9906;SDS011;4992;51.628;6.664;2023-04-21T13:31:29;16.67;;;14.07;;
9906;SDS011;4992;51.628;6.664;2023-04-21T13:33:56;16.00;;;14.20;;
9906;SDS011;4992;51.628;6.664;2023-04-21T13:36:22;17.05;;;14.32;;
9906;SDS011;4992;51.628;6.664;2023-04-21T13:38:48;16.40;;;14.30;;
9906;SDS011;4992;51.628;6.664;2023-04-21T13:41:15;16.27;;;14.57;;
9906;SDS011;4992;51.628;6.664;2023-04-21T13:43:41;15.93;;;14.30;;
9906;SDS011;4992;51.628;6.664;2023-04-21T13:46:07;16.63;;;14.88;;
9906;SDS011;4992;51.628;6.664;2023-04-21T13:48:33;15.90;;;14.32;;
9906;SDS011;4992;51.628;6.664;2023-04-21T13:50:59;16.30;;;14.70;;
9906;SDS011;4992;51.628;6.664;2023-04-21T13:53:25;15.75;;;14.23;;
9906;SDS011;4992;51.628;6.664;2023-04-21T13:55:51;17.17;;;14.43;;
9906;SDS011;4992;51.628;6.664;2023-04-21T13:58:18;16.23;;;14.32;;
9906;SDS011;4992;51.628;6.664;2023-04-21T14:00:44;15.82;;;14.23;;
9906;SDS011;4992;51.628;6.664;2023-04-21T14:03:10;16.60;;;14.90;;
9906;SDS011;4992;51.628;6.664;2023-04-21T14:05:37;16.38;;;14.23;;
9906;SDS011;4992;51.628;6.664;2023-04-21T14:08:03;15.32;;;13.73;;
9906;SDS011;4992;51.628;6.664;2023-04-21T14:10:29;15.07;;;13.63;;
9906;SDS011;4992;51.628;6.664;2023-04-21T14:12:55;18.92;;;14.50;;
9906;SDS011;4992;51.628;6.664;2023-04-21T14:15:21;15.40;;;13.77;;
9906;SDS011;4992;51.628;6.664;2023-04-21T14:17:47;13.60;;;12.35;;
9906;SDS011;4992;51.628;6.664;2023-04-21T14:20:13;14.30;;;12.80;;
9906;SDS011;4992;51.628;6.664;2023-04-21T14:22:39;13.63;;;12.32;;
9906;SDS011;4992;51.628;6.664;2023-04-21T14:25:05;13.77;;;12.13;;
9906;SDS011;4992;51.628;6.664;2023-04-21T14:27:32;13.82;;;12.60;;
9906;SDS011;4992;51.628;6.664;2023-04-21T14:29:57;13.43;;;12.13;;
9906;SDS011;4992;51.628;6.664;2023-04-21T14:32:24;14.80;;;12.77;;
9906;SDS011;4992;51.628;6.664;2023-04-21T14:34:50;12.77;;;11.48;;
9906;SDS011;4992;51.628;6.664;2023-04-21T14:37:22;12.23;;;11.05;;
9906;SDS011;4992;51.628;6.664;2023-04-21T14:39:48;12.45;;;11.18;;
9906;SDS011;4992;51.628;6.664;2023-04-21T14:42:15;10.63;;;9.52;;
9906;SDS011;4992;51.628;6.664;2023-04-21T14:44:42;10.88;;;9.77;;
9906;SDS011;4992;51.628;6.664;2023-04-21T14:47:08;10.38;;;9.27;;
9906;SDS011;4992;51.628;6.664;2023-04-21T14:49:34;10.40;;;9.38;;
9906;SDS011;4992;51.628;6.664;2023-04-21T14:52:01;10.70;;;9.57;;
9906;SDS011;4992;51.628;6.664;2023-04-21T14:54:27;10.32;;;9.25;;
9906;SDS011;4992;51.628;6.664;2023-04-21T14:56:53;10.48;;;9.00;;
9906;SDS011;4992;51.628;6.664;2023-04-21T14:59:21;10.80;;;9.43;;